Time;durP1;ratioP1;P1;durP2;ratioP2;P2;SDS_P1;SDS_P2;PMS_P1;PMS_P2;Temp;Humidity;BMP_temperature;BMP_pressure;BME280_temperature;BME280_humidity;BME280_pressure;Samples;Min_cycle;Max_cycle;Signal;HPM_P1;HPM_P2
2022/02/22 17:41:02;;;;;;;10.55;2.20;;;10.60;66.70;;;;;;5070580;28;20851;-42
2022/02/22 17:43:29;;;;;;;7.72;2.22;;;10.50;67.80;;;;;;5062619;28;20110;-47
2022/02/22 17:45:55;;;;;;;7.88;2.22;;;10.50;68.20;;;;;;5050530;28;20045;-48
2022/02/22 17:48:22;;;;;;;13.18;2.47;;;10.40;68.00;;;;;;5052739;28;20048;-47
2022/02/22 17:50:51;;;;;;;9.55;1.98;;;10.40;68.70;;;;;;5050255;28;20041;-44
2022/02/22 17:53:17;;;;;;;7.35;2.55;;;10.40;68.60;;;;;;5050475;28;20034;-43
2022/02/22 17:55:44;;;;;;;8.38;2.38;;;10.40;68.60;;;;;;5050270;28;20071;-46
2022/02/22 17:58:31;;;;;;;12.00;2.20;;;10.30;68.90;;;;;;5050281;28;20111;-46
2022/02/22 18:01:00;;;;;;;10.35;2.40;;;10.30;68.00;;;;;;5050008;28;20476;-50
2022/02/22 18:03:27;;;;;;;11.88;2.58;;;10.30;67.90;;;;;;5050166;28;20040;-42
2022/02/22 18:05:53;;;;;;;6.97;2.00;;;10.30;68.60;;;;;;5050890;28;20067;-45
2022/02/22 18:08:20;;;;;;;9.23;3.55;;;10.20;68.70;;;;;;5050152;28;20049;-46
2022/02/22 18:10:47;;;;;;;13.40;4.68;;;10.20;68.90;;;;;;5049916;28;20073;-49
2022/02/22 18:13:13;;;;;;;14.18;7.18;;;10.10;68.80;;;;;;5052134;28;20046;-43
2022/02/22 18:15:42;;;;;;;12.65;5.28;;;10.10;68.70;;;;;;5049847;28;20076;-44
2022/02/22 18:18:13;;;;;;;11.65;4.28;;;10.10;69.00;;;;;;5049922;28;20037;-49
2022/02/22 18:20:40;;;;;;;9.05;2.58;;;10.10;69.20;;;;;;5049991;28;20056;-48
2022/02/22 18:23:08;;;;;;;7.97;2.70;;;10.10;69.60;;;;;;5050041;28;20049;-48
2022/02/22 18:25:35;;;;;;;12.57;2.75;;;10.00;69.40;;;;;;5049864;28;20049;-46
2022/02/22 18:28:02;;;;;;;10.32;3.10;;;10.00;70.00;;;;;;5049631;28;20041;-48
2022/02/22 18:30:29;;;;;;;11.32;2.88;;;9.90;70.40;;;;;;5049108;28;20053;-50
2022/02/22 18:32:56;;;;;;;12.07;2.67;;;9.90;70.80;;;;;;5044983;28;20034;-43
2022/02/22 18:35:23;;;;;;;8.43;2.63;;;9.90;71.30;;;;;;5048982;28;20041;-47
2022/02/22 18:37:51;;;;;;;8.00;2.42;;;9.80;71.50;;;;;;5052896;28;20127;-48
2022/02/22 18:40:17;;;;;;;8.95;2.85;;;9.70;71.90;;;;;;5048345;28;20484;-47
2022/02/22 18:42:44;;;;;;;10.18;3.60;;;9.70;72.60;;;;;;5051497;28;20033;-47
2022/02/22 18:45:11;;;;;;;9.02;2.08;;;9.60;72.40;;;;;;5049320;28;20038;-48
2022/02/22 18:47:38;;;;;;;8.38;2.20;;;9.60;72.60;;;;;;5049304;28;20048;-46
2022/02/22 18:50:05;;;;;;;9.90;2.78;;;9.60;73.00;;;;;;5047650;28;20079;-47
2022/02/22 18:52:31;;;;;;;9.85;2.75;;;9.50;72.20;;;;;;5034052;28;20376;-49
2022/02/22 18:54:59;;;;;;;9.93;2.60;;;9.50;71.80;;;;;;5035762;28;20049;-48
2022/02/22 18:57:26;;;;;;;8.30;2.08;;;9.50;71.10;;;;;;5038631;28;20037;-43
2022/02/22 18:59:52;;;;;;;11.32;2.13;;;9.40;69.40;;;;;;5035745;28;20099;-43
2022/02/22 19:02:19;;;;;;;10.55;2.72;;;9.40;70.50;;;;;;5036040;28;20040;-45
2022/02/22 19:04:46;;;;;;;10.27;2.92;;;9.40;69.90;;;;;;5035657;28;20435;-46
2022/02/22 19:07:13;;;;;;;11.05;2.58;;;9.40;70.50;;;;;;5036068;28;20095;-45
2022/02/22 19:09:39;;;;;;;11.63;2.53;;;9.40;70.50;;;;;;5035594;28;20099;-45
2022/02/22 19:12:06;;;;;;;11.55;2.95;;;9.30;70.70;;;;;;5034698;28;20476;-45
2022/02/22 19:14:33;;;;;;;16.73;3.83;;;9.30;70.60;;;;;;5034589;28;20040;-43
2022/02/22 19:17:00;;;;;;;10.18;2.72;;;9.30;71.20;;;;;;5035289;28;20095;-46
2022/02/22 19:19:27;;;;;;;11.25;2.58;;;9.20;71.10;;;;;;5038788;28;20381;-48
2022/02/22 19:21:53;;;;;;;12.90;3.08;;;9.20;71.10;;;;;;5035249;28;20103;-47
2022/02/22 19:24:20;;;;;;;12.40;2.92;;;9.10;71.70;;;;;;5035007;28;20041;-49
2022/02/22 19:26:50;;;;;;;10.20;2.67;;;9.10;71.50;;;;;;5034908;28;20045;-45
2022/02/22 19:29:16;;;;;;;8.60;3.08;;;9.10;71.60;;;;;;5037690;28;20037;-43
2022/02/22 19:31:43;;;;;;;17.38;3.97;;;9.00;72.20;;;;;;5034904;28;20088;-45
2022/02/22 19:34:10;;;;;;;14.43;3.83;;;9.00;71.30;;;;;;5034912;28;20042;-47
2022/02/22 19:36:37;;;;;;;13.25;3.67;;;9.00;72.00;;;;;;5034962;28;20484;-44
2022/02/22 19:39:03;;;;;;;12.93;2.58;;;9.00;71.80;;;;;;5028460;28;20107;-43
2022/02/22 19:41:30;;;;;;;10.48;2.58;;;9.00;71.60;;;;;;5033340;28;20035;-42
2022/02/22 19:43:58;;;;;;;15.27;2.70;;;8.90;71.60;;;;;;5035078;28;20049;-47
2022/02/22 19:46:25;;;;;;;9.60;2.47;;;8.90;71.50;;;;;;5034946;28;20396;-41
2022/02/22 19:48:56;;;;;;;10.98;3.58;;;8.90;72.00;;;;;;5035827;28;20041;-45
2022/02/22 19:51:23;;;;;;;10.88;2.85;;;8.90;71.60;;;;;;5028574;28;20046;-50
2022/02/22 19:53:49;;;;;;;12.13;2.63;;;8.90;70.80;;;;;;5029711;28;20046;-42
2022/02/22 19:56:17;;;;;;;11.80;3.08;;;8.90;71.30;;;;;;5034720;28;20156;-46
2022/02/22 19:58:44;;;;;;;14.43;3.65;;;8.90;71.00;;;;;;5039328;28;20569;-47
2022/02/22 20:01:11;;;;;;;12.73;2.85;;;8.90;71.50;;;;;;5034077;28;20111;-44
2022/02/22 20:03:37;;;;;;;10.80;2.83;;;8.80;71.50;;;;;;5033468;28;20103;-52
2022/02/22 20:06:04;;;;;;;11.50;3.30;;;8.80;71.70;;;;;;5034239;28;20053;-47
2022/02/22 20:08:31;;;;;;;9.18;2.50;;;8.80;71.90;;;;;;5034288;28;20033;-45
2022/02/22 20:11:01;;;;;;;11.60;2.70;;;8.70;71.70;;;;;;5034304;28;20045;-43
2022/02/22 20:13:28;;;;;;;10.60;2.92;;;8.70;72.00;;;;;;5034372;28;20052;-48
2022/02/22 20:15:55;;;;;;;12.73;3.55;;;8.70;72.00;;;;;;5034237;28;20375;-43
2022/02/22 20:18:22;;;;;;;11.50;3.55;;;8.70;72.60;;;;;;5032045;28;20055;-44
2022/02/22 20:20:49;;;;;;;10.93;3.03;;;8.60;72.60;;;;;;5033557;28;20037;-43
2022/02/22 20:23:15;;;;;;;13.05;3.03;;;8.60;72.40;;;;;;5034079;28;20095;-48
2022/02/22 20:25:42;;;;;;;11.43;2.67;;;8.60;73.40;;;;;;5033056;28;20034;-43
2022/02/22 20:28:09;;;;;;;11.27;2.65;;;8.60;73.30;;;;;;5033501;28;20553;-44
2022/02/22 20:30:36;;;;;;;11.15;2.88;;;8.60;74.30;;;;;;5033739;28;20052;-46
2022/02/22 20:33:02;;;;;;;15.07;2.90;;;8.50;74.40;;;;;;5033076;28;20435;-47
2022/02/22 20:35:29;;;;;;;14.73;4.20;;;8.40;75.00;;;;;;5033725;28;20069;-50
2022/02/22 20:37:57;;;;;;;16.02;4.68;;;8.30;75.50;;;;;;5033654;28;20562;-44
2022/02/22 20:40:24;;;;;;;13.68;4.95;;;8.30;75.90;;;;;;5033163;28;20073;-46
2022/02/22 20:42:51;;;;;;;15.65;6.07;;;8.20;76.70;;;;;;5033594;28;20045;-44
2022/02/22 20:45:17;;;;;;;15.45;5.40;;;8.20;77.60;;;;;;5033586;28;20057;-43
2022/02/22 20:47:46;;;;;;;15.75;7.13;;;8.10;76.60;;;;;;5031829;28;20049;-43
2022/02/22 20:50:13;;;;;;;16.23;5.53;;;8.00;77.50;;;;;;5033465;28;20045;-48
2022/02/22 20:52:39;;;;;;;14.07;5.68;;;8.00;77.60;;;;;;5029435;28;20049;-47
2022/02/22 20:55:06;;;;;;;21.02;5.47;;;7.90;78.00;;;;;;5032441;28;20381;-47
2022/02/22 20:57:34;;;;;;;18.85;4.97;;;7.90;78.70;;;;;;5035637;28;20488;-46
2022/02/22 21:00:03;;;;;;;12.57;3.85;;;7.80;78.90;;;;;;5034807;28;20431;-45
2022/02/22 21:02:30;;;;;;;14.25;3.78;;;7.80;79.00;;;;;;5033308;28;20452;-45
2022/02/22 21:04:56;;;;;;;14.70;3.47;;;7.70;79.40;;;;;;5033399;28;20045;-50
2022/02/22 21:07:23;;;;;;;15.35;3.78;;;7.60;80.00;;;;;;5033660;28;20038;-45
2022/02/22 21:09:53;;;;;;;17.25;3.30;;;7.50;80.90;;;;;;5033493;28;20408;-45
2022/02/22 21:12:20;;;;;;;14.52;3.83;;;7.40;80.90;;;;;;5033561;28;20360;-46
2022/02/22 21:14:47;;;;;;;15.07;4.40;;;7.40;82.00;;;;;;5032935;28;20041;-45
2022/02/22 21:17:14;;;;;;;12.50;3.80;;;7.30;82.50;;;;;;5033518;28;20046;-43
2022/02/22 21:19:40;;;;;;;12.07;3.80;;;7.30;82.70;;;;;;5033280;28;20452;-43
2022/02/22 21:22:07;;;;;;;10.73;3.80;;;7.20;83.40;;;;;;5033538;28;20485;-46
2022/02/22 21:24:34;;;;;;;13.23;4.85;;;7.20;83.70;;;;;;5033312;28;20096;-44
2022/02/22 21:27:01;;;;;;;16.25;4.63;;;7.10;84.50;;;;;;5036792;28;20052;-46
2022/02/22 21:29:28;;;;;;;12.73;4.50;;;7.10;83.90;;;;;;5033096;28;20041;-46
2022/02/22 21:31:54;;;;;;;21.15;5.93;;;7.10;84.30;;;;;;5033213;28;20492;-44
2022/02/22 21:34:21;;;;;;;15.45;4.15;;;7.00;84.40;;;;;;5035965;28;20160;-43
2022/02/22 21:36:48;;;;;;;15.00;5.07;;;7.00;84.20;;;;;;5033402;28;20546;-48
2022/02/22 21:39:14;;;;;;;15.68;4.40;;;7.00;84.20;;;;;;5035395;28;20069;-44
2022/02/22 21:41:41;;;;;;;15.15;3.85;;;7.00;84.40;;;;;;5035622;28;20037;-45
2022/02/22 21:44:08;;;;;;;15.30;4.50;;;7.00;83.90;;;;;;5033083;28;20511;-46
2022/02/22 21:46:36;;;;;;;12.43;3.92;;;6.90;83.70;;;;;;5035320;28;20095;-52
2022/02/22 21:49:03;;;;;;;17.65;4.15;;;6.90;83.80;;;;;;5033106;28;20080;-49
2022/02/22 21:51:30;;;;;;;13.48;3.47;;;6.90;84.10;;;;;;5032991;28;20045;-50
2022/02/22 21:53:57;;;;;;;13.82;3.67;;;6.80;85.00;;;;;;5033196;28;20069;-49
2022/02/22 21:56:23;;;;;;;17.00;4.78;;;6.80;85.00;;;;;;5031004;28;20053;-46
2022/02/22 21:58:50;;;;;;;17.35;4.50;;;6.80;85.30;;;;;;5031693;28;20045;-49
2022/02/22 22:01:17;;;;;;;16.42;5.03;;;6.70;85.00;;;;;;5032409;28;20046;-44
2022/02/22 22:03:44;;;;;;;17.58;4.40;;;6.70;85.30;;;;;;5033113;28;20045;-47
2022/02/22 22:06:10;;;;;;;12.02;4.65;;;6.60;85.20;;;;;;5032891;28;20477;-46
2022/02/22 22:08:37;;;;;;;17.35;4.75;;;6.60;86.10;;;;;;5032797;28;20092;-46
2022/02/22 22:11:04;;;;;;;13.98;4.97;;;6.60;86.50;;;;;;5032910;28;20053;-48
2022/02/22 22:13:30;;;;;;;15.32;4.82;;;6.60;86.60;;;;;;5032742;28;20488;-49
2022/02/22 22:15:58;;;;;;;18.13;4.50;;;6.60;86.70;;;;;;5032743;28;20045;-50
2022/02/22 22:18:24;;;;;;;18.10;4.63;;;6.50;86.70;;;;;;5032736;28;20396;-50
2022/02/22 22:20:51;;;;;;;16.25;4.72;;;6.50;87.00;;;;;;5032644;28;20041;-49
2022/02/22 22:23:18;;;;;;;17.30;4.53;;;6.50;87.50;;;;;;5032037;28;20053;-44
2022/02/22 22:25:44;;;;;;;15.80;5.43;;;6.50;87.60;;;;;;5035967;28;20044;-50
2022/02/22 22:28:11;;;;;;;20.70;5.10;;;6.50;87.70;;;;;;5036499;28;20040;-44
2022/02/22 22:30:38;;;;;;;15.85;4.00;;;6.40;87.80;;;;;;5036352;28;20048;-45
2022/02/22 22:33:05;;;;;;;16.38;4.68;;;6.40;88.20;;;;;;5036592;28;20045;-45
2022/02/22 22:35:31;;;;;;;17.90;4.30;;;6.40;88.70;;;;;;5036674;28;20107;-50
2022/02/22 22:38:01;;;;;;;14.65;3.72;;;6.40;89.00;;;;;;5036291;28;20045;-49
2022/02/22 22:40:28;;;;;;;15.35;3.72;;;6.40;89.30;;;;;;5035778;28;20075;-45
2022/02/22 22:42:55;;;;;;;15.70;4.20;;;6.40;89.90;;;;;;5038969;28;20496;-43
2022/02/22 22:45:21;;;;;;;21.77;4.05;;;6.40;90.10;;;;;;5036039;28;20060;-42
2022/02/22 22:47:48;;;;;;;18.55;4.35;;;6.50;90.20;;;;;;5036098;28;20049;-51
2022/02/22 22:50:15;;;;;;;13.98;3.72;;;6.40;90.30;;;;;;5035983;28;20044;-44
2022/02/22 22:52:42;;;;;;;18.15;4.22;;;6.40;90.40;;;;;;5035882;28;20041;-44
2022/02/22 22:55:09;;;;;;;16.02;4.25;;;6.40;90.50;;;;;;5035968;28;20084;-44
2022/02/22 22:57:35;;;;;;;16.42;4.53;;;6.40;90.60;;;;;;5038699;28;20171;-50
2022/02/22 23:00:02;;;;;;;16.15;4.28;;;6.40;90.70;;;;;;5029232;28;20503;-50
2022/02/22 23:02:29;;;;;;;22.02;5.15;;;6.40;90.70;;;;;;5035879;28;20103;-46
2022/02/22 23:04:56;;;;;;;17.90;5.03;;;6.40;90.70;;;;;;5040950;28;20507;-45
2022/02/22 23:15:39;;;;;;;21.35;4.68;;;6.40;91.00;;;;;;5029106;28;20037;-43
2022/02/22 23:18:06;;;;;;;16.85;4.15;;;6.30;91.10;;;;;;5035451;28;20064;-51
2022/02/22 23:20:33;;;;;;;21.73;4.57;;;6.30;91.10;;;;;;5035718;28;20044;-48
2022/02/22 23:22:59;;;;;;;17.00;4.13;;;6.30;91.10;;;;;;5035440;28;20496;-44
2022/02/22 23:25:27;;;;;;;15.25;3.83;;;6.30;91.30;;;;;;5041668;28;20052;-45
2022/02/22 23:27:54;;;;;;;18.85;4.07;;;6.30;91.40;;;;;;5035325;28;20500;-49
